Time;durP1;ratioP1;P1;durP2;ratioP2;P2;SDS_P1;SDS_P2;PMS_P1;PMS_P2;Temp;Humidity;BMP_temperature;BMP_pressure;BME280_temperature;BME280_humidity;BME280_pressure;Samples;Min_cycle;Max_cycle;Signal;HPM_P1;HPM_P2
2022/11/26 00:01:00;;;;;;;16.83;6.97;;;5.40;90.80;;;;;;4971091;28;20054;-70
2022/11/26 00:03:27;;;;;;;20.73;6.65;;;5.50;97.90;;;;;;4984469;28;20050;-70
2022/11/26 00:05:54;;;;;;;13.57;5.93;;;5.10;97.80;;;;;;4991178;28;20133;-70
2022/11/26 00:08:22;;;;;;;13.38;6.20;;;6.10;98.30;;;;;;4991120;28;20141;-70
2022/11/26 00:10:49;;;;;;;15.63;6.68;;;5.20;98.10;;;;;;4990631;28;20054;-70
2022/11/26 00:13:17;;;;;;;22.13;7.45;;;5.30;90.70;;;;;;4991091;28;20051;-70
2022/11/26 00:15:44;;;;;;;17.30;6.85;;;5.30;96.20;;;;;;4990875;28;20050;-70
2022/11/26 00:18:13;;;;;;;21.92;7.22;;;5.40;92.80;;;;;;4990587;28;20057;-70
2022/11/26 00:20:40;;;;;;;16.58;6.88;;;5.60;93.80;;;;;;4990352;28;20054;-70
2022/11/26 00:23:07;;;;;;;16.25;7.00;;;;;;;;;;4991031;28;20053;-70
2022/11/26 00:25:39;;;;;;;18.25;7.05;;;5.20;98.10;;;;;;4990864;28;20056;-70
2022/11/26 00:28:15;;;;;;;18.15;7.45;;;6.10;98.50;;;;;;4990872;28;20400;-71
2022/11/26 00:30:42;;;;;;;17.83;7.18;;;6.00;98.50;;;;;;4989966;28;20141;-71
2022/11/26 00:33:09;;;;;;;20.88;6.88;;;;;;;;;;4990790;28;20049;-70
2022/11/26 00:35:37;;;;;;;26.52;7.57;;;5.30;98.10;;;;;;4990786;28;20051;-70
2022/11/26 00:38:04;;;;;;;14.93;6.60;;;;;;;;;;4990789;28;20080;-70
2022/11/26 00:40:32;;;;;;;19.63;8.25;;;5.30;98.30;;;;;;4990574;28;20077;-70
2022/11/26 00:42:58;;;;;;;18.17;7.80;;;5.10;98.20;;;;;;4990824;28;20510;-70
2022/11/26 00:45:26;;;;;;;16.58;7.15;;;6.00;91.20;;;;;;4988467;28;20058;-71
2022/11/26 00:47:53;;;;;;;20.63;7.00;;;5.20;98.10;;;;;;4971534;28;20480;-70
2022/11/26 00:50:21;;;;;;;18.60;7.60;;;5.10;90.80;;;;;;4971225;28;20055;-70
2022/11/26 00:52:50;;;;;;;19.38;7.78;;;5.20;94.50;;;;;;4974548;28;20081;-71
2022/11/26 00:55:23;;;;;;;20.52;7.85;;;4.90;96.80;;;;;;4974911;28;20523;-70
2022/11/26 00:57:50;;;;;;;19.27;8.00;;;;;;;;;;4975059;28;20050;-70
2022/11/26 01:00:18;;;;;;;17.95;7.80;;;5.10;98.10;;;;;;4974571;28;20097;-70
2022/11/26 01:02:44;;;;;;;21.92;7.50;;;5.10;98.30;;;;;;4974961;28;20061;-70
2022/11/26 01:05:11;;;;;;;25.25;8.57;;;;;;;;;;4992102;28;20072;-70
2022/11/26 01:07:38;;;;;;;17.55;7.70;;;5.10;97.30;;;;;;4994128;28;20054;-71
2022/11/26 01:10:10;;;;;;;16.27;7.85;;;5.10;98.30;;;;;;4993584;28;20050;-70
2022/11/26 01:12:37;;;;;;;15.10;7.40;;;5.70;98.30;;;;;;4994045;28;20141;-71
2022/11/26 01:15:04;;;;;;;21.02;7.97;;;;;;;;;;4989186;28;20043;-70
2022/11/26 01:17:31;;;;;;;29.52;8.75;;;;;;;;;;4974566;28;20054;-70
2022/11/26 01:19:58;;;;;;;29.73;8.20;;;;;;;;;;4974025;28;20046;-71
2022/11/26 01:22:25;;;;;;;18.70;7.53;;;5.00;98.00;;;;;;4974548;28;20061;-70
2022/11/26 01:24:52;;;;;;;16.70;6.90;;;4.90;98.20;;;;;;4974041;28;20489;-70
2022/11/26 01:27:20;;;;;;;21.48;7.95;;;5.10;90.80;;;;;;4975331;28;20066;-70
2022/11/26 01:29:47;;;;;;;22.73;8.02;;;5.00;98.30;;;;;;4974382;28;20059;-70
2022/11/26 01:32:14;;;;;;;19.27;7.50;;;;;;;;;;4974374;28;20053;-70
2022/11/26 01:34:41;;;;;;;25.27;8.48;;;;;;;;;;4974046;28;20073;-70
2022/11/26 01:37:12;;;;;;;19.33;7.40;;;5.10;98.30;;;;;;4974313;28;20060;-70
2022/11/26 01:39:40;;;;;;;14.75;7.13;;;;;;;;;;4974138;28;20141;-70
2022/11/26 01:42:08;;;;;;;15.93;6.82;;;5.00;90.80;;;;;;4973501;28;20058;-71
2022/11/26 01:44:36;;;;;;;21.98;8.60;;;4.50;92.40;;;;;;4973757;28;20042;-70
2022/11/26 01:47:17;;;;;;;19.27;7.65;;;5.10;94.20;;;;;;4973933;28;20385;-71
2022/11/26 01:50:17;;;;;;;16.17;7.97;;;5.20;98.40;;;;;;4974227;28;20489;-70
2022/11/26 01:52:44;;;;;;;21.60;7.60;;;5.90;98.60;;;;;;4954204;28;20050;-71
2022/11/26 01:55:13;;;;;;;15.48;6.95;;;5.00;93.90;;;;;;4973794;28;20061;-70
2022/11/26 01:57:40;;;;;;;18.17;7.47;;;;;;;;;;4973728;28;20055;-70
2022/11/26 02:00:09;;;;;;;13.30;7.40;;;5.00;95.40;;;;;;4973414;28;20059;-70
2022/11/26 02:02:36;;;;;;;17.60;7.68;;;5.00;98.40;;;;;;4972955;28;20050;-70
2022/11/26 02:05:06;;;;;;;23.48;8.10;;;4.90;98.20;;;;;;4992711;28;20133;-70
2022/11/26 02:07:33;;;;;;;20.80;7.75;;;4.40;98.10;;;;;;4992856;28;20054;-71
2022/11/26 02:10:00;;;;;;;20.08;8.15;;;;;;;;;;4992658;28;20162;-71
2022/11/26 02:12:27;;;;;;;15.75;7.47;;;4.10;98.20;;;;;;4992988;28;20051;-70
2022/11/26 02:14:54;;;;;;;21.30;8.18;;;;;;;;;;4992944;28;20072;-70
2022/11/26 02:17:23;;;;;;;14.98;6.82;;;4.90;98.40;;;;;;4990543;28;20201;-70
2022/11/26 02:20:24;;;;;;;16.83;7.45;;;4.80;95.40;;;;;;4973285;28;20061;-70
2022/11/26 02:23:12;;;;;;;13.98;7.47;;;4.80;98.40;;;;;;4973210;28;20046;-70
2022/11/26 02:25:53;;;;;;;17.42;7.80;;;4.70;90.80;;;;;;4951612;28;20057;-70
2022/11/26 02:28:32;;;;;;;15.95;6.97;;;4.80;92.60;;;;;;4989331;28;20058;-71
2022/11/26 02:31:02;;;;;;;16.33;6.53;;;4.40;98.40;;;;;;4972737;28;20077;-70
2022/11/26 02:33:30;;;;;;;16.98;6.85;;;4.80;98.40;;;;;;4974142;28;20061;-70
2022/11/26 02:35:59;;;;;;;16.25;7.13;;;4.70;90.80;;;;;;4990609;28;20060;-70
2022/11/26 02:38:29;;;;;;;16.77;7.38;;;4.80;98.40;;;;;;4992519;28;20407;-70
2022/11/26 02:40:55;;;;;;;14.45;6.95;;;5.20;98.50;;;;;;4992981;28;20050;-70
2022/11/26 02:43:23;;;;;;;15.48;6.82;;;;;;;;;;4992217;28;20061;-70
2022/11/26 02:45:50;;;;;;;17.67;7.78;;;4.60;98.50;;;;;;4989795;28;20046;-70
2022/11/26 02:48:21;;;;;;;13.32;7.50;;;4.70;98.30;;;;;;4972801;28;20051;-70
2022/11/26 02:50:48;;;;;;;13.70;7.63;;;4.70;98.50;;;;;;4972501;28;20130;-70
2022/11/26 02:53:15;;;;;;;18.50;7.72;;;4.60;90.80;;;;;;4972517;28;20137;-70
2022/11/26 02:55:45;;;;;;;15.75;7.47;;;4.60;98.30;;;;;;4972726;28;20050;-70
2022/11/26 02:58:12;;;;;;;22.80;8.35;;;4.70;98.50;;;;;;4972744;28;20051;-70
2022/11/26 03:00:41;;;;;;;16.73;7.25;;;4.60;90.80;;;;;;4972119;28;20054;-70
2022/11/26 03:03:10;;;;;;;16.38;8.15;;;4.60;90.80;;;;;;4972563;28;20054;-71
2022/11/26 03:05:38;;;;;;;17.20;7.63;;;4.50;90.80;;;;;;4972121;28;20101;-70
2022/11/26 03:08:05;;;;;;;16.25;7.93;;;;;;;;;;4981726;28;20424;-70
2022/11/26 03:10:32;;;;;;;17.42;8.13;;;4.20;98.40;;;;;;4991117;28;20054;-70
2022/11/26 03:13:00;;;;;;;18.00;8.23;;;;;;;;;;4991698;28;20050;-70
2022/11/26 03:15:27;;;;;;;17.98;8.25;;;;;;;;;;4985401;28;20134;-70
2022/11/26 03:17:54;;;;;;;18.27;7.75;;;;;;;;;;4972330;28;20142;-71
2022/11/26 03:20:20;;;;;;;14.90;8.40;;;4.50;98.40;;;;;;4972882;28;20050;-70
2022/11/26 03:22:48;;;;;;;21.02;8.77;;;4.70;98.50;;;;;;4972475;28;20400;-70
2022/11/26 03:25:16;;;;;;;13.23;7.45;;;;;;;;;;4971954;28;20134;-70
2022/11/26 03:27:42;;;;;;;18.05;8.93;;;4.60;98.40;;;;;;4972020;28;20051;-70
2022/11/26 03:30:10;;;;;;;17.98;8.57;;;4.40;98.40;;;;;;4978572;28;20046;-70
2022/11/26 03:32:37;;;;;;;17.13;8.80;;;;;;;;;;4991577;28;20484;-70
2022/11/26 03:35:04;;;;;;;16.15;8.48;;;4.70;98.40;;;;;;4991544;28;20217;-70
2022/11/26 03:37:30;;;;;;;18.02;8.88;;;4.30;94.60;;;;;;4991433;28;20054;-70
2022/11/26 03:39:58;;;;;;;20.80;9.25;;;4.50;90.80;;;;;;4990645;28;20416;-70
2022/11/26 03:42:25;;;;;;;21.40;8.50;;;;;;;;;;4991551;28;20052;-70
2022/11/26 03:44:52;;;;;;;21.05;9.30;;;;;;;;;;4983925;28;20047;-71
2022/11/26 03:47:19;;;;;;;20.60;9.68;;;5.10;98.70;;;;;;4972009;28;20057;-70
2022/11/26 03:49:46;;;;;;;18.23;8.50;;;4.20;98.50;;;;;;4971982;28;20137;-70
2022/11/26 03:52:13;;;;;;;15.82;8.18;;;;;;;;;;4971376;28;20059;-70
2022/11/26 03:54:40;;;;;;;20.05;9.23;;;4.60;98.50;;;;;;4971734;28;20050;-70
2022/11/26 03:57:08;;;;;;;22.17;9.65;;;4.50;90.80;;;;;;4971723;28;20059;-70
2022/11/26 03:59:34;;;;;;;22.58;9.85;;;4.60;93.70;;;;;;4980476;28;20153;-70
2022/11/26 04:02:01;;;;;;;27.15;9.32;;;3.50;96.00;;;;;;4990631;28;20050;-70
2022/11/26 04:04:28;;;;;;;22.23;9.88;;;;;;;;;;4991028;28;20531;-70
2022/11/26 04:06:55;;;;;;;19.10;9.27;;;;;;;;;;4991091;28;20485;-70
2022/11/26 04:09:22;;;;;;;19.77;9.43;;;4.70;98.50;;;;;;4991310;28;20422;-70
2022/11/26 04:11:49;;;;;;;21.08;9.70;;;;;;;;;;4990438;28;20057;-70
2022/11/26 04:14:17;;;;;;;22.40;9.25;;;4.50;98.60;;;;;;4983060;28;20173;-70
2022/11/26 04:16:44;;;;;;;30.40;10.27;;;;;;;;;;4971648;28;20165;-70
2022/11/26 04:19:11;;;;;;;22.50;9.02;;;;;;;;;;4987664;28;20050;-70
2022/11/26 04:21:38;;;;;;;17.88;10.07;;;;;;;;;;4971221;28;20047;-70
2022/11/26 04:24:06;;;;;;;19.10;9.88;;;;;;;;;;4987791;28;20053;-70
2022/11/26 04:26:33;;;;;;;19.30;10.30;;;;;;;;;;4973671;28;20066;-70
2022/11/26 04:29:00;;;;;;;18.92;9.98;;;;;;;;;;4982023;28;20061;-70
2022/11/26 04:31:28;;;;;;;21.67;8.93;;;4.20;98.40;;;;;;4971714;28;20047;-70
2022/11/26 04:33:54;;;;;;;16.17;8.90;;;3.40;98.20;;;;;;4955576;29;20055;-70
2022/11/26 04:36:21;;;;;;;23.73;9.43;;;4.50;98.50;;;;;;4956068;29;20055;-70
2022/11/26 04:38:48;;;;;;;18.80;9.45;;;;;;;;;;4956042;29;20480;-70
2022/11/26 04:41:15;;;;;;;17.85;9.55;;;4.90;98.60;;;;;;4971525;28;20090;-70
2022/11/26 04:43:42;;;;;;;26.15;10.77;;;;;;;;;;4964952;28;20050;-70
2022/11/26 04:46:09;;;;;;;18.90;9.88;;;4.20;98.40;;;;;;4991000;28;20043;-70
2022/11/26 04:48:37;;;;;;;18.10;9.57;;;4.40;98.60;;;;;;4975124;28;20189;-70
2022/11/26 04:51:04;;;;;;;20.80;9.77;;;;;;;;;;4974577;28;20181;-70
2022/11/26 04:53:31;;;;;;;24.42;10.13;;;;;;;;;;4974882;28;20402;-70
2022/11/26 04:55:58;;;;;;;19.30;10.05;;;3.30;98.20;;;;;;4991168;28;20242;-70
2022/11/26 04:58:25;;;;;;;19.92;9.48;;;;;;;;;;4990959;28;20143;-70
2022/11/26 05:00:52;;;;;;;20.98;10.48;;;;;;;;;;4974388;28;20050;-70
2022/11/26 05:03:19;;;;;;;20.52;9.60;;;3.60;98.20;;;;;;4974819;28;20515;-70
2022/11/26 05:05:47;;;;;;;18.95;9.35;;;4.30;98.60;;;;;;4990425;28;20042;-70
2022/11/26 05:08:15;;;;;;;20.00;10.13;;;;;;;;;;4974736;28;20500;-70
2022/11/26 05:10:42;;;;;;;27.38;11.27;;;;;;;;;;4974258;28;20145;-70
2022/11/26 05:13:09;;;;;;;15.10;9.32;;;;;;;;;;4984502;28;20137;-70
2022/11/26 05:15:35;;;;;;;19.02;9.65;;;4.60;98.60;;;;;;4993967;28;20136;-70
2022/11/26 05:18:02;;;;;;;18.52;9.80;;;;;;;;;;4993670;28;20137;-70
2022/11/26 05:20:30;;;;;;;21.20;10.43;;;;;;;;;;4993111;28;20049;-70
2022/11/26 05:22:58;;;;;;;17.45;9.82;;;4.20;98.50;;;;;;4994040;28;20064;-70
2022/11/26 05:25:25;;;;;;;19.13;9.50;;;4.30;98.70;;;;;;4993583;28;20125;-70
2022/11/26 05:27:52;;;;;;;16.95;9.40;;;;;;;;;;4982137;28;20054;-70
2022/11/26 05:30:19;;;;;;;22.90;10.50;;;;;;;;;;4973720;28;20484;-70
2022/11/26 05:32:46;;;;;;;23.42;10.35;;;;;;;;;;4990465;28;20141;-70
2022/11/26 05:35:13;;;;;;;16.77;9.80;;;3.80;98.60;;;;;;4990220;28;20049;-70
2022/11/26 05:37:40;;;;;;;18.45;10.10;;;;;;;;;;4974116;28;20064;-70
2022/11/26 05:40:09;;;;;;;21.27;9.70;;;4.30;98.60;;;;;;4989856;28;20056;-70
2022/11/26 05:42:36;;;;;;;19.88;9.52;;;;;;;;;;4975027;28;20046;-70
2022/11/26 05:45:03;;;;;;;16.48;8.88;;;4.10;98.50;;;;;;4973637;28;20038;-70
2022/11/26 05:47:30;;;;;;;19.15;9.50;;;;;;;;;;4974061;28;20054;-69
2022/11/26 05:49:57;;;;;;;15.68;9.15;;;;;;;;;;4973586;28;20053;-69
2022/11/26 05:52:24;;;;;;;19.48;10.05;;;;;;;;;;4974048;28;20077;-70
2022/11/26 05:54:51;;;;;;;18.88;10.05;;;;;;;;;;4990052;28;20046;-70
2022/11/26 05:57:19;;;;;;;16.23;9.63;;;4.30;94.60;;;;;;4989258;28;20061;-70
2022/11/26 05:59:47;;;;;;;16.05;9.32;;;4.30;93.70;;;;;;4989951;28;20084;-69
2022/11/26 06:02:13;;;;;;;18.88;9.38;;;4.20;98.50;;;;;;4989636;28;20397;-70
2022/11/26 06:04:40;;;;;;;22.05;9.93;;;;;;;;;;4973196;28;20047;-70
2022/11/26 06:07:07;;;;;;;18.33;9.30;;;3.60;98.40;;;;;;4973790;28;20137;-69
2022/11/26 06:09:34;;;;;;;22.65;10.40;;;;;;;;;;4973748;28;20065;-69
2022/11/26 06:12:01;;;;;;;19.83;9.40;;;5.20;96.00;;;;;;4985048;28;20054;-69
2022/11/26 06:14:29;;;;;;;21.17;9.93;;;3.40;98.40;;;;;;4993080;28;20061;-70
2022/11/26 06:16:56;;;;;;;25.10;11.13;;;;;;;;;;4992705;28;20384;-70
2022/11/26 06:19:23;;;;;;;23.45;10.07;;;;;;;;;;4992972;28;20069;-69
2022/11/26 06:21:50;;;;;;;23.88;9.98;;;4.30;98.60;;;;;;4992168;28;20141;-70
2022/11/26 06:24:17;;;;;;;20.67;9.88;;;;;;;;;;4992721;28;20189;-69
2022/11/26 06:26:44;;;;;;;19.73;9.60;;;;;;;;;;4978770;28;20054;-69
2022/11/26 06:29:12;;;;;;;19.35;9.23;;;;;;;;;;4973183;28;20051;-69
2022/11/26 06:31:40;;;;;;;16.50;9.65;;;4.20;98.60;;;;;;4972726;28;20516;-70
2022/11/26 06:34:06;;;;;;;25.17;10.48;;;3.20;98.30;;;;;;4973221;28;20065;-69
2022/11/26 06:36:33;;;;;;;19.65;9.60;;;;;;;;;;4989296;28;20064;-70
2022/11/26 06:39:00;;;;;;;26.63;11.88;;;4.20;98.70;;;;;;4972882;28;20047;-70
2022/11/26 06:41:27;;;;;;;20.00;10.55;;;3.30;94.90;;;;;;4975183;28;20059;-69
2022/11/26 06:43:54;;;;;;;21.90;10.55;;;;;;;;;;4969576;28;20583;-69
2022/11/26 06:46:21;;;;;;;20.58;10.40;;;;;;;;;;4954554;28;20416;-69
2022/11/26 06:48:49;;;;;;;32.80;11.07;;;4.40;90.90;;;;;;4969242;28;20412;-70
2022/11/26 06:51:16;;;;;;;18.98;10.75;;;;;;;;;;4969082;28;20061;-70
2022/11/26 06:53:43;;;;;;;18.67;10.10;;;3.20;98.50;;;;;;4969398;28;20067;-69
2022/11/26 06:56:10;;;;;;;14.10;9.80;;;4.20;98.70;;;;;;4983789;28;20064;-70
2022/11/26 06:58:38;;;;;;;16.52;10.10;;;;;;;;;;4972774;28;20069;-70
2022/11/26 07:01:08;;;;;;;17.80;10.35;;;3.40;98.50;;;;;;4972112;28;20485;-70
2022/11/26 07:03:35;;;;;;;34.38;10.93;;;4.30;98.80;;;;;;4988637;28;20054;-70
2022/11/26 07:06:03;;;;;;;16.80;9.77;;;3.40;98.40;;;;;;4972436;28;20436;-69
2022/11/26 07:08:29;;;;;;;18.85;9.93;;;4.70;98.80;;;;;;4988755;28;20549;-70
2022/11/26 07:10:56;;;;;;;25.38;10.60;;;;;;;;;;4982382;28;20050;-70
2022/11/26 07:13:23;;;;;;;18.50;9.77;;;;;;;;;;4991674;28;20140;-69
2022/11/26 07:15:51;;;;;;;14.55;9.82;;;;;;;;;;4991824;28;20133;-70
2022/11/26 07:18:18;;;;;;;20.77;11.05;;;;;;;;;;4991922;28;20054;-70
2022/11/26 07:20:45;;;;;;;16.15;10.27;;;;;;;;;;4991268;28;20050;-70
2022/11/26 07:23:13;;;;;;;24.42;10.85;;;3.60;98.40;;;;;;4991855;28;20056;-69
2022/11/26 07:25:40;;;;;;;23.88;10.45;;;;;;;;;;4990748;28;20486;-69
2022/11/26 07:28:07;;;;;;;22.67;11.13;;;;;;;;;;4991616;28;20511;-70
2022/11/26 07:30:34;;;;;;;24.30;11.07;;;;;;;;;;4990764;28;20488;-69
2022/11/26 07:33:01;;;;;;;14.57;9.40;;;;;;;;;;4991734;28;20513;-69
2022/11/26 07:35:28;;;;;;;25.10;11.18;;;3.50;98.60;;;;;;4991500;28;20153;-70
2022/11/26 07:37:55;;;;;;;16.90;11.35;;;;;;;;;;4992410;28;20054;-69
2022/11/26 07:40:23;;;;;;;16.58;10.15;;;5.10;97.70;;;;;;4979076;28;20054;-69
2022/11/26 07:42:50;;;;;;;16.70;9.80;;;;;;;;;;4988336;28;20058;-70
2022/11/26 07:45:17;;;;;;;17.02;10.93;;;;;;;;;;4971998;28;20069;-69
2022/11/26 07:47:44;;;;;;;19.42;10.07;;;;;;;;;;4987931;28;20089;-70
2022/11/26 07:50:11;;;;;;;18.50;10.82;;;3.60;90.80;;;;;;4987748;28;20086;-70
2022/11/26 07:52:38;;;;;;;22.13;10.50;;;;;;;;;;4971919;28;20571;-70
2022/11/26 07:55:05;;;;;;;17.60;10.82;;;4.40;94.30;;;;;;4973016;28;20137;-69
2022/11/26 07:57:33;;;;;;;23.75;11.40;;;3.60;98.50;;;;;;4973204;28;20051;-70
2022/11/26 08:00:00;;;;;;;18.00;10.55;;;;;;;;;;4971452;28;20505;-69
2022/11/26 08:02:28;;;;;;;19.80;11.50;;;;;;;;;;4995186;28;20058;-69
2022/11/26 08:04:55;;;;;;;18.40;10.50;;;;;;;;;;4994925;28;20068;-70
2022/11/26 08:07:22;;;;;;;18.67;10.75;;;;;;;;;;4986855;28;20051;-69
2022/11/26 08:09:49;;;;;;;19.10;11.48;;;;;;;;;;4977308;28;20046;-70
2022/11/26 08:12:16;;;;;;;16.77;10.20;;;;;;;;;;4989732;28;20042;-70
2022/11/26 08:14:44;;;;;;;18.27;11.55;;;4.30;91.00;;;;;;4994110;28;20054;-69
2022/11/26 08:17:10;;;;;;;17.80;11.77;;;4.60;98.70;;;;;;4994963;28;20053;-69
2022/11/26 08:19:37;;;;;;;23.13;12.13;;;3.60;98.60;;;;;;4995242;28;20141;-69
2022/11/26 08:22:04;;;;;;;22.58;12.07;;;;;;;;;;4994837;28;20050;-69
2022/11/26 08:24:31;;;;;;;21.70;12.43;;;4.60;98.90;;;;;;4995202;28;20108;-70
2022/11/26 08:26:59;;;;;;;20.50;12.02;;;4.60;98.90;;;;;;4994796;28;20052;-70
2022/11/26 08:29:25;;;;;;;18.88;12.10;;;4.50;98.80;;;;;;4994346;28;20051;-69
2022/11/26 08:31:54;;;;;;;22.98;12.90;;;4.50;91.00;;;;;;4992558;28;20060;-69
2022/11/26 08:34:21;;;;;;;27.60;13.93;;;;;;;;;;4995158;28;20058;-69
2022/11/26 08:36:47;;;;;;;25.17;13.23;;;4.60;98.80;;;;;;4994473;28;20054;-69
2022/11/26 08:39:14;;;;;;;22.45;12.13;;;4.30;98.80;;;;;;4995011;28;20518;-70
2022/11/26 08:41:41;;;;;;;24.67;12.32;;;;;;;;;;4994190;28;20108;-70
2022/11/26 08:44:08;;;;;;;22.48;12.38;;;4.80;98.80;;;;;;4993972;28;20058;-69
2022/11/26 08:46:35;;;;;;;24.42;13.20;;;;;;;;;;4994173;28;20125;-69
2022/11/26 08:49:03;;;;;;;24.60;12.63;;;4.50;98.80;;;;;;4994789;28;20064;-69
2022/11/26 08:51:30;;;;;;;23.27;13.13;;;4.80;98.90;;;;;;4994016;28;20050;-69
2022/11/26 08:53:57;;;;;;;28.73;13.77;;;;;;;;;;4994558;28;20065;-69
2022/11/26 08:56:24;;;;;;;23.58;11.32;;;4.90;98.70;;;;;;4994383;28;20141;-69
2022/11/26 08:58:51;;;;;;;27.25;13.10;;;;;;;;;;4980237;28;20063;-69
2022/11/26 09:01:19;;;;;;;21.70;12.05;;;4.80;91.10;;;;;;4985992;28;20053;-69
2022/11/26 09:03:47;;;;;;;18.02;11.38;;;5.70;96.60;;;;;;4973250;28;20465;-69
2022/11/26 09:06:15;;;;;;;21.70;12.93;;;5.00;98.90;;;;;;4974264;28;20057;-69
2022/11/26 09:09:11;;;;;;;21.27;12.63;;;4.90;98.70;;;;;;4990579;28;20133;-70
2022/11/26 09:11:32;;;;;;;22.58;12.05;;;;;;;;;;4972627;28;20047;-69
2022/11/26 09:14:00;;;;;;;21.35;12.85;;;;;;;;;;4990876;28;20057;-70
2022/11/26 09:16:26;;;;;;;22.92;12.18;;;5.10;98.60;;;;;;4990114;28;20467;-69
2022/11/26 09:18:53;;;;;;;24.05;12.70;;;5.10;98.70;;;;;;4974310;28;20054;-69
2022/11/26 09:21:21;;;;;;;28.92;12.95;;;5.00;91.20;;;;;;4989642;28;20057;-70
2022/11/26 09:23:48;;;;;;;32.00;14.27;;;;;;;;;;4974283;28;20051;-69
2022/11/26 09:26:15;;;;;;;21.90;12.60;;;5.10;98.80;;;;;;4974008;28;20064;-69
2022/11/26 09:28:42;;;;;;;23.30;13.00;;;;;;;;;;4974337;28;20054;-69
2022/11/26 09:31:09;;;;;;;23.40;11.93;;;;;;;;;;4986860;28;20055;-70
2022/11/26 09:33:36;;;;;;;21.83;12.23;;;5.20;98.60;;;;;;4990102;28;20073;-69
2022/11/26 09:36:06;;;;;;;30.90;14.48;;;5.30;92.50;;;;;;4976485;28;20137;-69
2022/11/26 09:38:34;;;;;;;23.05;13.00;;;5.40;96.80;;;;;;4992622;28;20050;-70
2022/11/26 09:41:05;;;;;;;23.95;12.77;;;5.30;98.80;;;;;;4992935;28;20050;-69
2022/11/26 09:43:35;;;;;;;24.75;12.65;;;5.50;98.70;;;;;;4993187;28;20491;-69
2022/11/26 09:46:02;;;;;;;22.60;13.27;;;5.10;98.60;;;;;;4993596;28;20488;-69
2022/11/26 09:48:30;;;;;;;27.27;14.80;;;5.50;98.80;;;;;;4993551;28;20137;-69
2022/11/26 09:50:59;;;;;;;25.20;13.20;;;4.50;98.50;;;;;;4992813;28;20133;-69
2022/11/26 09:53:27;;;;;;;26.70;13.23;;;5.00;98.50;;;;;;4975452;28;20526;-70
2022/11/26 09:55:55;;;;;;;27.17;13.70;;;5.00;98.60;;;;;;4094160;28;10000997;-70
2022/11/26 09:58:24;;;;;;;30.30;14.85;;;5.50;98.70;;;;;;4966110;28;20487;-70
2022/11/26 10:00:51;;;;;;;24.95;13.13;;;;;;;;;;4970264;28;20057;-70
2022/11/26 10:03:18;;;;;;;26.63;13.13;;;5.00;98.60;;;;;;4955439;29;20408;-70
2022/11/26 10:05:51;;;;;;;27.67;14.57;;;5.60;91.40;;;;;;4955033;28;20138;-70
2022/11/26 10:09:03;;;;;;;25.92;13.82;;;5.80;98.50;;;;;;4957967;28;20042;-70
2022/11/26 10:11:34;;;;;;;25.17;13.32;;;5.70;91.40;;;;;;4924123;29;20409;-70
2022/11/26 10:14:08;;;;;;;27.95;14.07;;;5.70;91.40;;;;;;4899160;29;20078;-70
2022/11/26 10:16:38;;;;;;;29.73;13.95;;;5.70;91.40;;;;;;4930704;29;20066;-70
2022/11/26 10:19:07;;;;;;;30.00;15.20;;;5.90;94.40;;;;;;4970300;28;20063;-70
2022/11/26 10:21:35;;;;;;;33.35;14.88;;;5.80;91.40;;;;;;4970773;28;20042;-70
2022/11/26 10:24:04;;;;;;;32.33;15.00;;;5.20;95.50;;;;;;4966103;28;20137;-70
2022/11/26 10:26:34;;;;;;;48.00;17.00;;;5.90;91.40;;;;;;4968992;28;20055;-70
2022/11/26 10:29:11;;;;;;;33.35;14.77;;;5.20;98.40;;;;;;4954881;28;20043;-70
2022/11/26 10:31:38;;;;;;;35.22;16.75;;;;;;;;;;4953474;29;20138;-70
2022/11/26 10:34:10;;;;;;;30.35;15.65;;;5.90;91.40;;;;;;4953574;29;20061;-70
2022/11/26 10:36:39;;;;;;;45.83;18.02;;;6.00;91.50;;;;;;4953458;28;20057;-70
2022/11/26 10:39:06;;;;;;;36.28;16.65;;;5.60;98.60;;;;;;4953616;29;20066;-70
2022/11/26 10:41:35;;;;;;;48.42;18.42;;;5.50;98.20;;;;;;4953203;29;20055;-70
2022/11/26 10:44:29;;;;;;;41.58;17.63;;;5.70;98.50;;;;;;4969798;28;20059;-70
2022/11/26 10:46:57;;;;;;;44.40;19.33;;;;;;;;;;4976770;28;20047;-70
2022/11/26 10:49:24;;;;;;;35.80;16.83;;;6.10;98.70;;;;;;4954605;28;20130;-70
2022/11/26 10:51:52;;;;;;;40.47;18.45;;;6.10;94.80;;;;;;4968969;28;20055;-70
2022/11/26 10:54:27;;;;;;;44.85;18.88;;;6.10;91.50;;;;;;4969586;28;20115;-70
2022/11/26 10:56:55;;;;;;;57.90;19.88;;;5.50;98.60;;;;;;4969048;28;20066;-70
2022/11/26 10:59:24;;;;;;;47.13;18.58;;;5.30;98.40;;;;;;4954189;28;20433;-70
2022/11/26 11:01:51;;;;;;;49.75;20.52;;;;;;;;;;4952424;29;20051;-70
2022/11/26 11:04:27;;;;;;;49.60;20.15;;;6.30;98.70;;;;;;4952920;29;20059;-70
2022/11/26 11:06:54;;;;;;;43.88;19.15;;;6.40;98.60;;;;;;4952648;29;20058;-70
2022/11/26 11:09:28;;;;;;;57.03;20.92;;;6.30;98.70;;;;;;4953134;29;20142;-70
2022/11/26 11:12:22;;;;;;;50.65;20.35;;;5.40;98.30;;;;;;4953568;28;20142;-70
2022/11/26 11:14:49;;;;;;;52.38;20.42;;;6.50;96.80;;;;;;4950058;29;20130;-70
2022/11/26 11:17:32;;;;;;;53.92;20.52;;;6.40;92.70;;;;;;4959061;28;20420;-70
2022/11/26 11:20:01;;;;;;;59.33;22.13;;;6.40;91.60;;;;;;4952029;29;20059;-70
2022/11/26 11:22:28;;;;;;;64.85;22.38;;;;;;;;;;4952909;29;20051;-71
2022/11/26 11:24:55;;;;;;;56.88;22.27;;;;;;;;;;4952689;29;20058;-70
2022/11/26 11:27:25;;;;;;;60.70;22.95;;;6.20;92.10;;;;;;4952800;29;20047;-70
2022/11/26 11:29:52;;;;;;;64.38;22.58;;;;;;;;;;4948155;29;20051;-70
2022/11/26 11:32:35;;;;;;;53.17;21.33;;;7.50;98.90;;;;;;4946987;29;20061;-70
2022/11/26 11:35:21;;;;;;;56.95;22.77;;;6.70;91.70;;;;;;4933167;29;20062;-70
2022/11/26 11:37:48;;;;;;;58.50;22.90;;;7.00;93.30;;;;;;4933729;29;20074;-70
2022/11/26 11:40:17;;;;;;;51.22;21.77;;;6.00;98.40;;;;;;4933989;29;20531;-70
2022/11/26 11:42:50;;;;;;;62.00;22.55;;;6.70;91.70;;;;;;4949580;29;20052;-70
2022/11/26 11:45:21;;;;;;;61.17;24.50;;;7.50;98.80;;;;;;4963740;28;20079;-70
2022/11/26 11:47:48;;;;;;;67.50;23.98;;;6.80;91.70;;;;;;4943560;29;20498;-70
2022/11/26 11:50:20;;;;;;;56.08;22.27;;;6.90;98.50;;;;;;4943414;29;20071;-70
2022/11/26 11:52:56;;;;;;;63.47;23.08;;;6.10;98.30;;;;;;4959306;28;20527;-70
2022/11/26 11:55:27;;;;;;;58.95;22.45;;;6.30;97.70;;;;;;4952524;29;20066;-70
2022/11/26 11:58:24;;;;;;;67.78;22.98;;;6.00;97.40;;;;;;4943591;29;20147;-70
2022/11/26 12:00:53;;;;;;;63.40;22.55;;;7.60;98.60;;;;;;4901748;28;20060;-70
2022/11/26 12:03:42;;;;;;;62.67;23.05;;;7.70;98.70;;;;;;4950634;29;20059;-70
2022/11/26 12:06:16;;;;;;;60.25;22.08;;;7.10;98.60;;;;;;4946131;29;20161;-71
2022/11/26 12:08:50;;;;;;;59.85;22.85;;;7.10;91.80;;;;;;4933378;29;20513;-70
2022/11/26 12:11:31;;;;;;;53.50;21.53;;;7.10;93.10;;;;;;4932850;29;20138;-71
2022/11/26 12:14:01;;;;;;;58.95;22.17;;;7.30;98.70;;;;;;4934548;29;20051;-70
2022/11/26 12:16:31;;;;;;;53.50;21.73;;;7.20;98.40;;;;;;4933108;29;20047;-70
2022/11/26 12:18:59;;;;;;;61.13;21.27;;;7.60;98.50;;;;;;4932429;29;20466;-70
2022/11/26 12:21:29;;;;;;;60.65;22.70;;;6.50;98.40;;;;;;4932693;29;20052;-70
2022/11/26 12:23:57;;;;;;;55.03;21.77;;;8.20;92.00;;;;;;4932426;29;20465;-70
2022/11/26 12:26:26;;;;;;;56.65;22.35;;;7.40;98.60;;;;;;4933173;29;20052;-70
2022/11/26 12:28:55;;;;;;;58.63;22.48;;;7.30;98.50;;;;;;4947352;29;20142;-69
2022/11/26 12:31:26;;;;;;;62.90;23.95;;;7.40;98.60;;;;;;4940734;29;20054;-70
2022/11/26 12:33:53;;;;;;;52.30;21.10;;;7.30;98.50;;;;;;4952627;29;20485;-70
2022/11/26 12:36:22;;;;;;;58.13;22.23;;;6.80;98.40;;;;;;4952438;29;20059;-70
2022/11/26 12:38:51;;;;;;;66.38;21.65;;;7.40;98.70;;;;;;4952170;29;20585;-70
2022/11/26 12:41:19;;;;;;;60.35;23.75;;;7.30;91.80;;;;;;4951678;29;20055;-70
2022/11/26 12:43:48;;;;;;;53.75;22.73;;;7.40;91.80;;;;;;4952405;29;20077;-70
2022/11/26 12:46:18;;;;;;;59.53;22.15;;;7.40;92.00;;;;;;4952498;28;20386;-70
2022/11/26 12:48:49;;;;;;;59.58;22.15;;;7.50;98.50;;;;;;4955436;29;20427;-70
2022/11/26 12:51:24;;;;;;;52.65;22.50;;;7.40;91.80;;;;;;4955617;29;20440;-70
2022/11/26 12:53:55;;;;;;;59.17;23.45;;;8.20;92.00;;;;;;4955896;29;20098;-70
2022/11/26 12:56:23;;;;;;;48.00;20.67;;;7.50;98.50;;;;;;4955942;29;20058;-70
2022/11/26 12:58:57;;;;;;;53.75;21.42;;;7.60;98.50;;;;;;4955661;29;20061;-70
2022/11/26 13:01:24;;;;;;;52.67;21.58;;;7.60;98.60;;;;;;4956204;28;20092;-70
2022/11/26 13:03:52;;;;;;;57.58;23.17;;;7.30;94.30;;;;;;4936871;29;20062;-70
2022/11/26 13:06:34;;;;;;;55.30;22.08;;;7.50;96.80;;;;;;4935831;29;20158;-70
2022/11/26 13:09:06;;;;;;;56.30;22.83;;;7.70;98.50;;;;;;4953570;29;20062;-70
2022/11/26 13:11:38;;;;;;;46.58;21.77;;;7.50;91.80;;;;;;4954882;29;20073;-70
2022/11/26 13:14:09;;;;;;;53.47;21.90;;;7.70;98.30;;;;;;4954930;29;20505;-70
2022/11/26 13:16:38;;;;;;;54.63;21.67;;;7.60;98.50;;;;;;4965644;28;20506;-70
2022/11/26 13:19:10;;;;;;;53.53;21.80;;;7.60;96.70;;;;;;4943438;29;20062;-70